sensor_id;sensor_type;location;lat;lon;timestamp;P1;P2;P0
47741;PMS5003;33504;52.066;6.096;2023-02-26T00:00:15;20;19;
47741;PMS5003;33504;52.066;6.096;2023-02-26T00:00:17;20;19;
47741;PMS5003;33504;52.066;6.096;2023-02-26T00:02:45;17;14;
47741;PMS5003;33504;52.066;6.096;2023-02-26T00:05:12;17;14;
47741;PMS5003;33504;52.066;6.096;2023-02-26T00:07:40;17;16;
47741;PMS5003;33504;52.066;6.096;2023-02-26T00:10:09;16;14;
47741;PMS5003;33504;52.066;6.096;2023-02-26T00:12:38;15;13;
47741;PMS5003;33504;52.066;6.096;2023-02-26T00:15:07;15;14;
47741;PMS5003;33504;52.066;6.096;2023-02-26T00:17:39;18;15;
47741;PMS5003;33504;52.066;6.096;2023-02-26T00:20:10;11;11;
47741;PMS5003;33504;52.066;6.096;2023-02-26T00:22:38;13;13;
47741;PMS5003;33504;52.066;6.096;2023-02-26T00:25:06;11;10;
47741;PMS5003;33504;52.066;6.096;2023-02-26T00:27:34;15;14;
47741;PMS5003;33504;52.066;6.096;2023-02-26T00:30:02;10;9;
47741;PMS5003;33504;52.066;6.096;2023-02-26T00:32:31;9;9;
47741;PMS5003;33504;52.066;6.096;2023-02-26T00:34:58;11;10;
47741;PMS5003;33504;52.066;6.096;2023-02-26T00:37:28;9;8;
47741;PMS5003;33504;52.066;6.096;2023-02-26T00:40:09;11;11;
47741;PMS5003;33504;52.066;6.096;2023-02-26T00:42:43;11;10;
47741;PMS5003;33504;52.066;6.096;2023-02-26T00:45:11;15;13;
47741;PMS5003;33504;52.066;6.096;2023-02-26T00:47:42;13;10;
47741;PMS5003;33504;52.066;6.096;2023-02-26T00:50:16;10;10;
47741;PMS5003;33504;52.066;6.096;2023-02-26T00:52:47;9;9;
47741;PMS5003;33504;52.066;6.096;2023-02-26T00:55:19;10;9;
47741;PMS5003;33504;52.066;6.096;2023-02-26T00:57:47;7;7;
47741;PMS5003;33504;52.066;6.096;2023-02-26T01:00:14;10;10;
47741;PMS5003;33504;52.066;6.096;2023-02-26T01:02:43;9;8;
47741;PMS5003;33504;52.066;6.096;2023-02-26T01:05:11;9;8;
47741;PMS5003;33504;52.066;6.096;2023-02-26T01:07:41;9;9;
47741;PMS5003;33504;52.066;6.096;2023-02-26T01:10:13;7;7;
47741;PMS5003;33504;52.066;6.096;2023-02-26T01:12:41;7;7;
47741;PMS5003;33504;52.066;6.096;2023-02-26T01:15:09;7;7;
47741;PMS5003;33504;52.066;6.096;2023-02-26T01:17:39;8;8;
47741;PMS5003;33504;52.066;6.096;2023-02-26T01:20:13;6;6;
47741;PMS5003;33504;52.066;6.096;2023-02-26T01:22:45;7;6;
47741;PMS5003;33504;52.066;6.096;2023-02-26T01:25:19;5;4;
47741;PMS5003;33504;52.066;6.096;2023-02-26T01:27:50;9;6;
47741;PMS5003;33504;52.066;6.096;2023-02-26T01:30:18;6;5;
47741;PMS5003;33504;52.066;6.096;2023-02-26T01:32:47;6;6;
47741;PMS5003;33504;52.066;6.096;2023-02-26T01:35:26;7;7;
47741;PMS5003;33504;52.066;6.096;2023-02-26T01:38:03;7;6;
47741;PMS5003;33504;52.066;6.096;2023-02-26T01:40:47;6;5;
47741;PMS5003;33504;52.066;6.096;2023-02-26T01:43:38;5;5;
47741;PMS5003;33504;52.066;6.096;2023-02-26T01:46:15;6;6;
47741;PMS5003;33504;52.066;6.096;2023-02-26T01:48:49;9;8;
47741;PMS5003;33504;52.066;6.096;2023-02-26T01:51:18;6;5;
47741;PMS5003;33504;52.066;6.096;2023-02-26T01:54:07;7;7;
47741;PMS5003;33504;52.066;6.096;2023-02-26T01:56:34;6;5;
47741;PMS5003;33504;52.066;6.096;2023-02-26T01:59:02;6;6;
47741;PMS5003;33504;52.066;6.096;2023-02-26T02:01:30;8;7;
47741;PMS5003;33504;52.066;6.096;2023-02-26T02:03:58;9;8;
47741;PMS5003;33504;52.066;6.096;2023-02-26T02:06:26;5;5;
47741;PMS5003;33504;52.066;6.096;2023-02-26T02:08:55;7;7;
47741;PMS5003;33504;52.066;6.096;2023-02-26T02:11:23;6;6;
47741;PMS5003;33504;52.066;6.096;2023-02-26T02:13:54;6;6;
47741;PMS5003;33504;52.066;6.096;2023-02-26T02:16:35;11;8;
47741;PMS5003;33504;52.066;6.096;2023-02-26T02:19:11;8;7;
47741;PMS5003;33504;52.066;6.096;2023-02-26T02:21:52;7;6;
47741;PMS5003;33504;52.066;6.096;2023-02-26T02:24:29;6;6;
47741;PMS5003;33504;52.066;6.096;2023-02-26T02:27:07;5;5;
47741;PMS5003;33504;52.066;6.096;2023-02-26T02:29:46;8;6;
47741;PMS5003;33504;52.066;6.096;2023-02-26T02:32:30;7;6;
47741;PMS5003;33504;52.066;6.096;2023-02-26T02:35:03;6;6;
47741;PMS5003;33504;52.066;6.096;2023-02-26T02:37:39;6;6;
47741;PMS5003;33504;52.066;6.096;2023-02-26T02:40:12;6;6;
47741;PMS5003;33504;52.066;6.096;2023-02-26T02:42:45;9;8;
47741;PMS5003;33504;52.066;6.096;2023-02-26T02:45:16;8;6;
47741;PMS5003;33504;52.066;6.096;2023-02-26T02:47:46;8;7;
47741;PMS5003;33504;52.066;6.096;2023-02-26T02:50:19;7;7;
47741;PMS5003;33504;52.066;6.096;2023-02-26T02:52:53;7;5;
47741;PMS5003;33504;52.066;6.096;2023-02-26T02:55:24;8;7;
47741;PMS5003;33504;52.066;6.096;2023-02-26T02:57:57;6;6;
47741;PMS5003;33504;52.066;6.096;2023-02-26T03:00:28;5;4;
47741;PMS5003;33504;52.066;6.096;2023-02-26T03:02:59;6;6;
47741;PMS5003;33504;52.066;6.096;2023-02-26T03:05:36;5;4;
47741;PMS5003;33504;52.066;6.096;2023-02-26T03:08:04;5;5;
47741;PMS5003;33504;52.066;6.096;2023-02-26T03:10:35;4;3;
47741;PMS5003;33504;52.066;6.096;2023-02-26T03:13:03;4;3;
47741;PMS5003;33504;52.066;6.096;2023-02-26T03:15:32;4;3;
47741;PMS5003;33504;52.066;6.096;2023-02-26T03:18:07;5;4;
47741;PMS5003;33504;52.066;6.096;2023-02-26T03:20:45;4;4;
47741;PMS5003;33504;52.066;6.096;2023-02-26T03:23:23;3;3;
47741;PMS5003;33504;52.066;6.096;2023-02-26T03:25:59;4;4;
47741;PMS5003;33504;52.066;6.096;2023-02-26T03:28:39;4;4;
47741;PMS5003;33504;52.066;6.096;2023-02-26T03:31:13;5;4;
47741;PMS5003;33504;52.066;6.096;2023-02-26T03:33:46;5;4;
47741;PMS5003;33504;52.066;6.096;2023-02-26T03:36:20;4;4;
47741;PMS5003;33504;52.066;6.096;2023-02-26T03:38:52;4;4;
47741;PMS5003;33504;52.066;6.096;2023-02-26T03:41:26;5;5;
47741;PMS5003;33504;52.066;6.096;2023-02-26T03:44:00;4;3;
47741;PMS5003;33504;52.066;6.096;2023-02-26T03:46:37;5;4;
47741;PMS5003;33504;52.066;6.096;2023-02-26T03:49:08;3;3;
47741;PMS5003;33504;52.066;6.096;2023-02-26T03:51:40;5;3;
47741;PMS5003;33504;52.066;6.096;2023-02-26T03:54:08;6;4;
47741;PMS5003;33504;52.066;6.096;2023-02-26T03:56:41;4;3;
47741;PMS5003;33504;52.066;6.096;2023-02-26T03:59:10;6;6;
47741;PMS5003;33504;52.066;6.096;2023-02-26T04:01:40;5;3;
47741;PMS5003;33504;52.066;6.096;2023-02-26T04:04:10;3;2;
47741;PMS5003;33504;52.066;6.096;2023-02-26T04:06:41;2;2;
47741;PMS5003;33504;52.066;6.096;2023-02-26T04:09:09;3;3;
47741;PMS5003;33504;52.066;6.096;2023-02-26T04:11:37;3;3;
47741;PMS5003;33504;52.066;6.096;2023-02-26T04:14:05;3;3;
47741;PMS5003;33504;52.066;6.096;2023-02-26T04:16:32;2;1;
47741;PMS5003;33504;52.066;6.096;2023-02-26T04:18:59;6;6;
47741;PMS5003;33504;52.066;6.096;2023-02-26T04:21:26;2;2;
47741;PMS5003;33504;52.066;6.096;2023-02-26T04:23:53;3;3;
47741;PMS5003;33504;52.066;6.096;2023-02-26T04:26:20;2;2;
47741;PMS5003;33504;52.066;6.096;2023-02-26T04:28:47;2;2;
47741;PMS5003;33504;52.066;6.096;2023-02-26T04:31:14;2;2;
47741;PMS5003;33504;52.066;6.096;2023-02-26T04:33:42;2;2;
47741;PMS5003;33504;52.066;6.096;2023-02-26T04:36:09;3;3;
47741;PMS5003;33504;52.066;6.096;2023-02-26T04:38:36;3;3;
47741;PMS5003;33504;52.066;6.096;2023-02-26T04:41:03;2;2;
47741;PMS5003;33504;52.066;6.096;2023-02-26T04:43:30;1;1;
47741;PMS5003;33504;52.066;6.096;2023-02-26T04:45:57;2;2;
47741;PMS5003;33504;52.066;6.096;2023-02-26T04:48:24;3;3;
47741;PMS5003;33504;52.066;6.096;2023-02-26T04:50:51;2;2;
47741;PMS5003;33504;52.066;6.096;2023-02-26T04:53:18;3;3;
47741;PMS5003;33504;52.066;6.096;2023-02-26T04:55:46;3;2;
47741;PMS5003;33504;52.066;6.096;2023-02-26T04:58:14;2;2;
47741;PMS5003;33504;52.066;6.096;2023-02-26T05:00:41;2;2;
47741;PMS5003;33504;52.066;6.096;2023-02-26T05:03:08;3;3;
47741;PMS5003;33504;52.066;6.096;2023-02-26T05:05:35;2;2;
47741;PMS5003;33504;52.066;6.096;2023-02-26T05:08:02;4;3;
47741;PMS5003;33504;52.066;6.096;2023-02-26T05:10:29;3;2;
47741;PMS5003;33504;52.066;6.096;2023-02-26T05:12:56;2;1;
47741;PMS5003;33504;52.066;6.096;2023-02-26T05:15:24;2;1;
47741;PMS5003;33504;52.066;6.096;2023-02-26T05:17:51;2;1;
47741;PMS5003;33504;52.066;6.096;2023-02-26T05:20:18;2;1;
47741;PMS5003;33504;52.066;6.096;2023-02-26T05:22:45;2;2;
47741;PMS5003;33504;52.066;6.096;2023-02-26T05:25:12;1;1;
47741;PMS5003;33504;52.066;6.096;2023-02-26T05:27:40;1;1;
47741;PMS5003;33504;52.066;6.096;2023-02-26T05:30:09;2;2;
47741;PMS5003;33504;52.066;6.096;2023-02-26T05:32:39;2;1;
47741;PMS5003;33504;52.066;6.096;2023-02-26T05:35:06;4;2;
47741;PMS5003;33504;52.066;6.096;2023-02-26T05:37:34;1;1;
47741;PMS5003;33504;52.066;6.096;2023-02-26T05:40:02;2;2;
47741;PMS5003;33504;52.066;6.096;2023-02-26T05:42:30;2;2;
47741;PMS5003;33504;52.066;6.096;2023-02-26T05:44:57;3;2;
47741;PMS5003;33504;52.066;6.096;2023-02-26T05:47:24;1;1;
47741;PMS5003;33504;52.066;6.096;2023-02-26T05:49:51;3;2;
47741;PMS5003;33504;52.066;6.096;2023-02-26T05:52:18;2;2;
47741;PMS5003;33504;52.066;6.096;2023-02-26T05:54:45;1;1;
47741;PMS5003;33504;52.066;6.096;2023-02-26T05:57:12;2;1;
47741;PMS5003;33504;52.066;6.096;2023-02-26T05:59:39;1;1;
47741;PMS5003;33504;52.066;6.096;2023-02-26T06:02:06;4;2;
47741;PMS5003;33504;52.066;6.096;2023-02-26T06:04:34;1;1;
47741;PMS5003;33504;52.066;6.096;2023-02-26T06:07:01;4;2;
47741;PMS5003;33504;52.066;6.096;2023-02-26T06:09:28;0;0;
47741;PMS5003;33504;52.066;6.096;2023-02-26T06:11:55;3;2;
47741;PMS5003;33504;52.066;6.096;2023-02-26T06:14:23;2;2;
47741;PMS5003;33504;52.066;6.096;2023-02-26T06:16:50;1;1;
47741;PMS5003;33504;52.066;6.096;2023-02-26T06:19:17;1;1;
47741;PMS5003;33504;52.066;6.096;2023-02-26T06:21:44;2;1;
47741;PMS5003;33504;52.066;6.096;2023-02-26T06:24:11;2;1;
47741;PMS5003;33504;52.066;6.096;2023-02-26T06:26:38;2;2;
47741;PMS5003;33504;52.066;6.096;2023-02-26T06:29:05;4;2;
47741;PMS5003;33504;52.066;6.096;2023-02-26T06:31:32;2;1;
47741;PMS5003;33504;52.066;6.096;2023-02-26T06:33:59;1;1;
47741;PMS5003;33504;52.066;6.096;2023-02-26T06:36:27;3;1;
47741;PMS5003;33504;52.066;6.096;2023-02-26T06:38:54;1;1;
47741;PMS5003;33504;52.066;6.096;2023-02-26T06:41:21;2;1;
47741;PMS5003;33504;52.066;6.096;2023-02-26T06:43:48;1;1;
47741;PMS5003;33504;52.066;6.096;2023-02-26T06:46:15;2;2;
47741;PMS5003;33504;52.066;6.096;2023-02-26T06:48:42;2;2;
47741;PMS5003;33504;52.066;6.096;2023-02-26T06:51:09;2;2;
47741;PMS5003;33504;52.066;6.096;2023-02-26T06:53:36;3;2;
47741;PMS5003;33504;52.066;6.096;2023-02-26T06:56:03;6;6;
47741;PMS5003;33504;52.066;6.096;2023-02-26T06:58:31;2;2;
47741;PMS5003;33504;52.066;6.096;2023-02-26T07:00:58;4;3;
47741;PMS5003;33504;52.066;6.096;2023-02-26T07:03:25;6;4;
47741;PMS5003;33504;52.066;6.096;2023-02-26T07:05:52;5;4;
47741;PMS5003;33504;52.066;6.096;2023-02-26T07:08:20;7;6;
47741;PMS5003;33504;52.066;6.096;2023-02-26T07:10:46;7;6;
47741;PMS5003;33504;52.066;6.096;2023-02-26T07:13:13;4;3;
47741;PMS5003;33504;52.066;6.096;2023-02-26T07:15:41;2;2;
47741;PMS5003;33504;52.066;6.096;2023-02-26T07:18:07;1;1;
47741;PMS5003;33504;52.066;6.096;2023-02-26T07:20:34;1;1;
47741;PMS5003;33504;52.066;6.096;2023-02-26T07:23:01;2;1;
47741;PMS5003;33504;52.066;6.096;2023-02-26T07:25:29;1;1;
47741;PMS5003;33504;52.066;6.096;2023-02-26T07:27:56;2;2;
47741;PMS5003;33504;52.066;6.096;2023-02-26T07:30:22;4;4;
47741;PMS5003;33504;52.066;6.096;2023-02-26T07:32:49;0;0;
47741;PMS5003;33504;52.066;6.096;2023-02-26T07:35:17;1;1;
47741;PMS5003;33504;52.066;6.096;2023-02-26T07:37:44;1;1;
47741;PMS5003;33504;52.066;6.096;2023-02-26T07:40:12;4;2;
47741;PMS5003;33504;52.066;6.096;2023-02-26T07:42:40;1;1;
47741;PMS5003;33504;52.066;6.096;2023-02-26T07:45:07;2;1;
47741;PMS5003;33504;52.066;6.096;2023-02-26T07:47:34;1;1;
47741;PMS5003;33504;52.066;6.096;2023-02-26T07:50:01;1;1;
47741;PMS5003;33504;52.066;6.096;2023-02-26T07:52:28;1;1;
47741;PMS5003;33504;52.066;6.096;2023-02-26T07:54:55;1;1;
47741;PMS5003;33504;52.066;6.096;2023-02-26T07:57:22;1;1;
47741;PMS5003;33504;52.066;6.096;2023-02-26T07:59:49;4;3;
47741;PMS5003;33504;52.066;6.096;2023-02-26T08:02:16;4;4;
47741;PMS5003;33504;52.066;6.096;2023-02-26T08:04:43;1;1;
47741;PMS5003;33504;52.066;6.096;2023-02-26T08:07:10;0;0;
47741;PMS5003;33504;52.066;6.096;2023-02-26T08:09:37;1;1;
47741;PMS5003;33504;52.066;6.096;2023-02-26T08:12:04;1;1;
47741;PMS5003;33504;52.066;6.096;2023-02-26T08:14:31;2;2;
47741;PMS5003;33504;52.066;6.096;2023-02-26T08:16:58;4;4;
47741;PMS5003;33504;52.066;6.096;2023-02-26T08:19:25;4;4;
47741;PMS5003;33504;52.066;6.096;2023-02-26T08:21:53;3;3;
47741;PMS5003;33504;52.066;6.096;2023-02-26T08:24:20;3;2;
47741;PMS5003;33504;52.066;6.096;2023-02-26T08:26:47;3;2;
47741;PMS5003;33504;52.066;6.096;2023-02-26T08:29:14;2;2;
47741;PMS5003;33504;52.066;6.096;2023-02-26T08:31:41;2;2;
47741;PMS5003;33504;52.066;6.096;2023-02-26T08:34:08;25;23;
47741;PMS5003;33504;52.066;6.096;2023-02-26T08:36:35;7;7;
47741;PMS5003;33504;52.066;6.096;2023-02-26T08:39:02;6;6;
47741;PMS5003;33504;52.066;6.096;2023-02-26T08:41:30;2;2;
47741;PMS5003;33504;52.066;6.096;2023-02-26T08:43:57;1;1;
47741;PMS5003;33504;52.066;6.096;2023-02-26T08:46:24;0;0;
47741;PMS5003;33504;52.066;6.096;2023-02-26T08:48:51;3;3;
47741;PMS5003;33504;52.066;6.096;2023-02-26T08:51:18;1;1;
47741;PMS5003;33504;52.066;6.096;2023-02-26T08:53:46;2;2;
47741;PMS5003;33504;52.066;6.096;2023-02-26T08:56:12;2;1;
47741;PMS5003;33504;52.066;6.096;2023-02-26T08:58:39;2;2;
47741;PMS5003;33504;52.066;6.096;2023-02-26T09:01:06;2;1;
47741;PMS5003;33504;52.066;6.096;2023-02-26T09:03:34;1;1;
47741;PMS5003;33504;52.066;6.096;2023-02-26T09:06:01;1;0;
47741;PMS5003;33504;52.066;6.096;2023-02-26T09:08:28;0;0;
47741;PMS5003;33504;52.066;6.096;2023-02-26T09:10:58;0;0;
47741;PMS5003;33504;52.066;6.096;2023-02-26T09:13:25;1;1;
47741;PMS5003;33504;52.066;6.096;2023-02-26T09:15:52;1;0;
47741;PMS5003;33504;52.066;6.096;2023-02-26T09:18:19;1;0;
47741;PMS5003;33504;52.066;6.096;2023-02-26T09:20:46;0;0;
47741;PMS5003;33504;52.066;6.096;2023-02-26T09:23:13;1;1;
47741;PMS5003;33504;52.066;6.096;2023-02-26T09:25:40;1;1;
47741;PMS5003;33504;52.066;6.096;2023-02-26T09:28:06;1;0;
47741;PMS5003;33504;52.066;6.096;2023-02-26T09:30:33;0;0;
47741;PMS5003;33504;52.066;6.096;2023-02-26T09:33:00;1;1;
47741;PMS5003;33504;52.066;6.096;2023-02-26T09:35:27;1;1;
47741;PMS5003;33504;52.066;6.096;2023-02-26T09:37:54;1;1;
47741;PMS5003;33504;52.066;6.096;2023-02-26T09:40:23;1;1;
47741;PMS5003;33504;52.066;6.096;2023-02-26T09:43:01;1;1;
47741;PMS5003;33504;52.066;6.096;2023-02-26T09:45:39;2;2;
47741;PMS5003;33504;52.066;6.096;2023-02-26T09:48:10;1;1;
47741;PMS5003;33504;52.066;6.096;2023-02-26T09:50:41;1;0;
47741;PMS5003;33504;52.066;6.096;2023-02-26T09:53:13;0;0;
47741;PMS5003;33504;52.066;6.096;2023-02-26T09:55:45;0;0;
47741;PMS5003;33504;52.066;6.096;2023-02-26T09:58:15;0;0;
47741;PMS5003;33504;52.066;6.096;2023-02-26T10:00:49;1;1;
47741;PMS5003;33504;52.066;6.096;2023-02-26T10:03:24;7;6;
47741;PMS5003;33504;52.066;6.096;2023-02-26T10:06:14;6;6;
47741;PMS5003;33504;52.066;6.096;2023-02-26T10:09:02;11;11;
47741;PMS5003;33504;52.066;6.096;2023-02-26T10:11:50;5;5;
47741;PMS5003;33504;52.066;6.096;2023-02-26T10:14:22;4;3;
47741;PMS5003;33504;52.066;6.096;2023-02-26T10:16:54;2;1;
47741;PMS5003;33504;52.066;6.096;2023-02-26T10:19:26;1;1;
47741;PMS5003;33504;52.066;6.096;2023-02-26T10:21:59;1;0;
47741;PMS5003;33504;52.066;6.096;2023-02-26T10:24:30;1;1;
47741;PMS5003;33504;52.066;6.096;2023-02-26T10:27:05;1;1;
47741;PMS5003;33504;52.066;6.096;2023-02-26T10:29:39;13;13;
47741;PMS5003;33504;52.066;6.096;2023-02-26T10:32:17;6;6;
47741;PMS5003;33504;52.066;6.096;2023-02-26T10:34:50;4;4;
47741;PMS5003;33504;52.066;6.096;2023-02-26T10:37:20;0;0;
47741;PMS5003;33504;52.066;6.096;2023-02-26T10:39:55;1;0;
47741;PMS5003;33504;52.066;6.096;2023-02-26T10:42:29;0;0;
47741;PMS5003;33504;52.066;6.096;2023-02-26T10:45:09;0;0;
47741;PMS5003;33504;52.066;6.096;2023-02-26T10:47:52;0;0;
47741;PMS5003;33504;52.066;6.096;2023-02-26T10:50:28;6;5;
47741;PMS5003;33504;52.066;6.096;2023-02-26T10:52:56;3;3;
47741;PMS5003;33504;52.066;6.096;2023-02-26T10:55:28;25;25;
47741;PMS5003;33504;52.066;6.096;2023-02-26T10:58:02;0;0;
47741;PMS5003;33504;52.066;6.096;2023-02-26T11:00:32;1;1;
47741;PMS5003;33504;52.066;6.096;2023-02-26T11:03:00;1;1;
47741;PMS5003;33504;52.066;6.096;2023-02-26T11:05:31;1;0;
47741;PMS5003;33504;52.066;6.096;2023-02-26T11:07:59;1;0;
47741;PMS5003;33504;52.066;6.096;2023-02-26T11:10:30;0;0;
47741;PMS5003;33504;52.066;6.096;2023-02-26T11:13:05;4;3;
47741;PMS5003;33504;52.066;6.096;2023-02-26T11:15:32;37;37;
47741;PMS5003;33504;52.066;6.096;2023-02-26T11:17:59;18;17;
47741;PMS5003;33504;52.066;6.096;2023-02-26T11:20:30;27;26;
47741;PMS5003;33504;52.066;6.096;2023-02-26T11:23:02;29;29;
47741;PMS5003;33504;52.066;6.096;2023-02-26T11:25:32;19;18;
47741;PMS5003;33504;52.066;6.096;2023-02-26T11:28:01;18;18;
47741;PMS5003;33504;52.066;6.096;2023-02-26T11:30:33;16;15;
47741;PMS5003;33504;52.066;6.096;2023-02-26T11:33:06;15;15;
47741;PMS5003;33504;52.066;6.096;2023-02-26T11:35:42;11;10;
47741;PMS5003;33504;52.066;6.096;2023-02-26T11:38:13;29;29;
47741;PMS5003;33504;52.066;6.096;2023-02-26T11:40:45;23;23;
47741;PMS5003;33504;52.066;6.096;2023-02-26T11:43:15;15;15;
47741;PMS5003;33504;52.066;6.096;2023-02-26T11:45:47;48;48;
47741;PMS5003;33504;52.066;6.096;2023-02-26T11:48:19;21;21;
47741;PMS5003;33504;52.066;6.096;2023-02-26T11:50:51;5;5;
47741;PMS5003;33504;52.066;6.096;2023-02-26T11:53:24;0;0;
47741;PMS5003;33504;52.066;6.096;2023-02-26T11:55:58;1;0;
47741;PMS5003;33504;52.066;6.096;2023-02-26T11:58:28;0;0;
47741;PMS5003;33504;52.066;6.096;2023-02-26T12:01:02;1;1;
47741;PMS5003;33504;52.066;6.096;2023-02-26T12:03:33;4;4;
47741;PMS5003;33504;52.066;6.096;2023-02-26T12:06:03;2;2;
47741;PMS5003;33504;52.066;6.096;2023-02-26T12:08:32;0;0;
47741;PMS5003;33504;52.066;6.096;2023-02-26T12:11:05;1;1;
47741;PMS5003;33504;52.066;6.096;2023-02-26T12:13:51;1;1;
47741;PMS5003;33504;52.066;6.096;2023-02-26T12:16:33;3;1;
47741;PMS5003;33504;52.066;6.096;2023-02-26T12:19:05;4;4;
47741;PMS5003;33504;52.066;6.096;2023-02-26T12:21:56;8;8;
47741;PMS5003;33504;52.066;6.096;2023-02-26T12:24:36;3;3;
47741;PMS5003;33504;52.066;6.096;2023-02-26T12:27:21;3;2;
47741;PMS5003;33504;52.066;6.096;2023-02-26T12:30:02;1;1;
47741;PMS5003;33504;52.066;6.096;2023-02-26T12:32:46;2;2;
47741;PMS5003;33504;52.066;6.096;2023-02-26T12:35:30;8;7;
47741;PMS5003;33504;52.066;6.096;2023-02-26T12:38:07;4;4;
47741;PMS5003;33504;52.066;6.096;2023-02-26T12:40:45;3;2;
47741;PMS5003;33504;52.066;6.096;2023-02-26T12:43:42;2;2;
47741;PMS5003;33504;52.066;6.096;2023-02-26T12:46:15;12;11;
47741;PMS5003;33504;52.066;6.096;2023-02-26T12:49:17;5;5;
47741;PMS5003;33504;52.066;6.096;2023-02-26T12:51:59;3;3;
47741;PMS5003;33504;52.066;6.096;2023-02-26T12:54:41;6;6;
47741;PMS5003;33504;52.066;6.096;2023-02-26T12:57:28;8;8;
47741;PMS5003;33504;52.066;6.096;2023-02-26T13:00:45;11;11;
47741;PMS5003;33504;52.066;6.096;2023-02-26T13:03:28;3;3;
47741;PMS5003;33504;52.066;6.096;2023-02-26T13:06:14;4;4;
47741;PMS5003;33504;52.066;6.096;2023-02-26T13:09:01;3;3;
47741;PMS5003;33504;52.066;6.096;2023-02-26T13:11:44;12;12;
47741;PMS5003;33504;52.066;6.096;2023-02-26T13:14:23;8;8;
47741;PMS5003;33504;52.066;6.096;2023-02-26T13:16:58;5;3;
47741;PMS5003;33504;52.066;6.096;2023-02-26T13:19:35;3;2;
47741;PMS5003;33504;52.066;6.096;2023-02-26T13:22:12;4;4;
47741;PMS5003;33504;52.066;6.096;2023-02-26T13:24:45;1;1;
47741;PMS5003;33504;52.066;6.096;2023-02-26T13:27:15;3;3;
47741;PMS5003;33504;52.066;6.096;2023-02-26T13:29:44;4;4;
47741;PMS5003;33504;52.066;6.096;2023-02-26T13:32:15;9;9;
47741;PMS5003;33504;52.066;6.096;2023-02-26T13:34:47;3;3;
47741;PMS5003;33504;52.066;6.096;2023-02-26T13:37:22;1;1;
47741;PMS5003;33504;52.066;6.096;2023-02-26T13:39:55;1;1;
47741;PMS5003;33504;52.066;6.096;2023-02-26T13:42:40;4;3;
47741;PMS5003;33504;52.066;6.096;2023-02-26T13:45:20;2;1;
47741;PMS5003;33504;52.066;6.096;2023-02-26T13:47:59;1;0;
47741;PMS5003;33504;52.066;6.096;2023-02-26T13:50:43;1;1;
47741;PMS5003;33504;52.066;6.096;2023-02-26T13:53:45;0;0;
47741;PMS5003;33504;52.066;6.096;2023-02-26T13:56:19;1;1;
47741;PMS5003;33504;52.066;6.096;2023-02-26T13:58:51;2;1;
47741;PMS5003;33504;52.066;6.096;2023-02-26T14:01:25;2;1;
47741;PMS5003;33504;52.066;6.096;2023-02-26T14:04:05;3;2;
47741;PMS5003;33504;52.066;6.096;2023-02-26T14:06:47;0;0;
47741;PMS5003;33504;52.066;6.096;2023-02-26T14:09:55;2;2;
47741;PMS5003;33504;52.066;6.096;2023-02-26T14:12:32;3;3;
47741;PMS5003;33504;52.066;6.096;2023-02-26T14:15:17;0;0;
47741;PMS5003;33504;52.066;6.096;2023-02-26T14:17:59;0;0;
47741;PMS5003;33504;52.066;6.096;2023-02-26T14:20:28;2;1;
47741;PMS5003;33504;52.066;6.096;2023-02-26T14:23:10;0;0;
47741;PMS5003;33504;52.066;6.096;2023-02-26T14:25:51;1;1;
47741;PMS5003;33504;52.066;6.096;2023-02-26T14:28:29;1;1;
47741;PMS5003;33504;52.066;6.096;2023-02-26T14:31:13;23;22;
47741;PMS5003;33504;52.066;6.096;2023-02-26T14:33:44;4;3;
47741;PMS5003;33504;52.066;6.096;2023-02-26T14:36:14;11;9;
47741;PMS5003;33504;52.066;6.096;2023-02-26T14:38:45;23;22;
47741;PMS5003;33504;52.066;6.096;2023-02-26T14:41:19;16;16;
47741;PMS5003;33504;52.066;6.096;2023-02-26T14:43:54;6;6;
47741;PMS5003;33504;52.066;6.096;2023-02-26T14:46:25;5;3;
47741;PMS5003;33504;52.066;6.096;2023-02-26T14:48:53;1;1;
47741;PMS5003;33504;52.066;6.096;2023-02-26T14:51:22;5;3;
47741;PMS5003;33504;52.066;6.096;2023-02-26T14:54:03;1;1;
47741;PMS5003;33504;52.066;6.096;2023-02-26T14:56:46;3;3;
47741;PMS5003;33504;52.066;6.096;2023-02-26T14:59:26;4;3;
47741;PMS5003;33504;52.066;6.096;2023-02-26T15:02:08;3;2;
47741;PMS5003;33504;52.066;6.096;2023-02-26T15:04:49;3;2;
47741;PMS5003;33504;52.066;6.096;2023-02-26T15:07:39;2;2;
47741;PMS5003;33504;52.066;6.096;2023-02-26T15:10:17;5;4;
47741;PMS5003;33504;52.066;6.096;2023-02-26T15:12:59;3;2;
47741;PMS5003;33504;52.066;6.096;2023-02-26T15:15:42;3;2;
47741;PMS5003;33504;52.066;6.096;2023-02-26T15:18:24;2;2;
47741;PMS5003;33504;52.066;6.096;2023-02-26T15:21:05;0;0;
47741;PMS5003;33504;52.066;6.096;2023-02-26T15:23:40;0;0;
47741;PMS5003;33504;52.066;6.096;2023-02-26T15:26:12;1;1;
47741;PMS5003;33504;52.066;6.096;2023-02-26T15:28:44;1;1;
47741;PMS5003;33504;52.066;6.096;2023-02-26T15:31:12;0;0;
47741;PMS5003;33504;52.066;6.096;2023-02-26T15:33:39;2;1;
47741;PMS5003;33504;52.066;6.096;2023-02-26T15:36:07;1;1;
47741;PMS5003;33504;52.066;6.096;2023-02-26T15:38:39;0;0;
47741;PMS5003;33504;52.066;6.096;2023-02-26T15:41:08;2;1;
47741;PMS5003;33504;52.066;6.096;2023-02-26T15:43:37;24;23;
47741;PMS5003;33504;52.066;6.096;2023-02-26T15:46:10;15;15;
47741;PMS5003;33504;52.066;6.096;2023-02-26T15:48:37;29;29;
47741;PMS5003;33504;52.066;6.096;2023-02-26T15:51:07;50;50;
47741;PMS5003;33504;52.066;6.096;2023-02-26T15:53:38;60;60;
47741;PMS5003;33504;52.066;6.096;2023-02-26T15:56:09;26;26;
47741;PMS5003;33504;52.066;6.096;2023-02-26T15:58:39;10;8;
47741;PMS5003;33504;52.066;6.096;2023-02-26T16:01:12;9;8;
47741;PMS5003;33504;52.066;6.096;2023-02-26T16:03:41;8;8;
47741;PMS5003;33504;52.066;6.096;2023-02-26T16:06:10;21;21;
47741;PMS5003;33504;52.066;6.096;2023-02-26T16:08:38;29;28;
47741;PMS5003;33504;52.066;6.096;2023-02-26T16:11:06;20;20;
47741;PMS5003;33504;52.066;6.096;2023-02-26T16:13:35;15;15;
47741;PMS5003;33504;52.066;6.096;2023-02-26T16:16:06;22;21;
47741;PMS5003;33504;52.066;6.096;2023-02-26T16:18:38;19;18;
47741;PMS5003;33504;52.066;6.096;2023-02-26T16:21:07;16;16;
47741;PMS5003;33504;52.066;6.096;2023-02-26T16:23:40;18;18;
47741;PMS5003;33504;52.066;6.096;2023-02-26T16:26:13;12;12;
47741;PMS5003;33504;52.066;6.096;2023-02-26T16:28:44;17;16;
47741;PMS5003;33504;52.066;6.096;2023-02-26T16:31:15;27;27;
47741;PMS5003;33504;52.066;6.096;2023-02-26T16:34:00;56;55;
47741;PMS5003;33504;52.066;6.096;2023-02-26T16:36:30;144;143;
47741;PMS5003;33504;52.066;6.096;2023-02-26T16:39:00;139;139;
47741;PMS5003;33504;52.066;6.096;2023-02-26T16:41:37;153;153;
47741;PMS5003;33504;52.066;6.096;2023-02-26T16:44:34;116;116;
47741;PMS5003;33504;52.066;6.096;2023-02-26T16:47:06;32;30;
47741;PMS5003;33504;52.066;6.096;2023-02-26T16:49:35;4;4;
47741;PMS5003;33504;52.066;6.096;2023-02-26T16:52:05;2;2;
47741;PMS5003;33504;52.066;6.096;2023-02-26T16:54:35;13;12;
47741;PMS5003;33504;52.066;6.096;2023-02-26T16:57:07;4;4;
47741;PMS5003;33504;52.066;6.096;2023-02-26T16:59:41;5;5;
47741;PMS5003;33504;52.066;6.096;2023-02-26T17:02:14;6;6;
47741;PMS5003;33504;52.066;6.096;2023-02-26T17:04:44;2;2;
47741;PMS5003;33504;52.066;6.096;2023-02-26T17:07:15;1;1;
47741;PMS5003;33504;52.066;6.096;2023-02-26T17:09:49;4;4;
47741;PMS5003;33504;52.066;6.096;2023-02-26T17:12:20;5;5;
47741;PMS5003;33504;52.066;6.096;2023-02-26T17:14:51;8;8;